Time;durP1;ratioP1;P1;durP2;ratioP2;P2;SDS_P1;SDS_P2;PMS_P1;PMS_P2;Temp;Humidity;BMP_temperature;BMP_pressure;BME280_temperature;BME280_humidity;BME280_pressure;Samples;Min_cycle;Max_cycle;Signal;HPM_P1;HPM_P2
2023/05/22 00:01:54;;;;;;;1.73;0.80;;;;;;;10.64;60.22;102638.91;5059744;28;20084;-67
2023/05/22 00:04:21;;;;;;;1.77;0.63;;;;;;;10.62;60.21;102631.94;5061173;28;20041;-68
2023/05/22 00:06:49;;;;;;;3.13;0.90;;;;;;;10.58;60.23;102628.38;5059735;28;20052;-67
2023/05/22 00:09:16;;;;;;;3.47;0.73;;;;;;;10.56;60.12;102633.63;5061963;28;20053;-67
2023/05/22 00:11:43;;;;;;;2.08;0.70;;;;;;;10.53;60.73;102620.50;5031879;28;20324;-67
2023/05/22 00:14:12;;;;;;;2.50;0.82;;;;;;;10.52;60.14;102628.31;5061683;28;20083;-67
2023/05/22 00:16:39;;;;;;;1.13;0.80;;;;;;;10.48;60.50;102632.66;5061233;28;20041;-67
2023/05/22 00:19:11;;;;;;;1.70;0.68;;;;;;;10.46;60.14;102629.13;5058391;28;20656;-67
2023/05/22 00:21:38;;;;;;;1.98;0.63;;;;;;;10.44;60.56;102632.56;5060443;28;20051;-67
2023/05/22 00:24:07;;;;;;;1.88;0.70;;;;;;;10.41;60.88;102628.19;5056513;28;20052;-68
2023/05/22 00:26:34;;;;;;;3.42;0.80;;;;;;;10.40;60.80;102631.66;5061296;28;20762;-67
2023/05/22 00:29:01;;;;;;;1.05;0.50;;;;;;;10.36;60.83;102632.50;5061076;28;20052;-68
2023/05/22 00:31:28;;;;;;;1.38;0.70;;;;;;;10.20;61.18;102605.28;5060832;28;20048;-67
2023/05/22 00:33:55;;;;;;;1.98;0.70;;;;;;;10.34;61.11;102636.81;5061089;28;20049;-67
2023/05/22 00:36:21;;;;;;;2.08;0.88;;;;;;;10.30;61.21;102628.09;5059599;28;20048;-67
2023/05/22 00:38:48;;;;;;;3.05;0.70;;;;;;;10.28;61.49;102627.19;5059620;28;20048;-67
2023/05/22 00:41:16;;;;;;;1.90;0.60;;;;;;;10.27;61.49;102632.38;5061245;28;20084;-67
2023/05/22 00:43:44;;;;;;;1.70;0.70;;;;;;;10.24;61.14;102633.16;5057730;28;20507;-67
2023/05/22 00:46:13;;;;;;;1.30;0.68;;;;;;;10.21;61.35;102638.34;5053407;28;20051;-67
2023/05/22 00:48:40;;;;;;;1.83;1.00;;;;;;;10.20;61.17;102631.38;5054251;28;20056;-67
2023/05/22 00:51:07;;;;;;;2.85;0.75;;;;;;;10.18;61.15;102627.00;5059063;28;20052;-68
2023/05/22 00:53:34;;;;;;;4.82;1.65;;;;;;;10.18;61.26;102627.00;5058711;28;20079;-66
2023/05/22 00:56:01;;;;;;;0.70;0.50;;;;;;;10.17;61.82;102620.03;5064116;28;20059;-67
2023/05/22 00:58:29;;;;;;;1.40;0.85;;;;;;;10.14;61.30;102624.34;5059497;28;20046;-67
2023/05/22 01:00:56;;;;;;;8.10;1.50;;;;;;;10.10;61.36;102619.97;5061254;28;20505;-67
2023/05/22 01:03:27;;;;;;;2.97;0.52;;;;;;;10.09;61.54;102623.41;5057857;28;20401;-68
2023/05/22 01:05:54;;;;;;;2.85;0.70;;;;;;;10.07;61.71;102621.63;5059157;28;20145;-67
2023/05/22 01:08:21;;;;;;;1.17;0.63;;;;;;;10.04;62.03;102625.06;5057691;28;20051;-67
2023/05/22 01:10:54;;;;;;;1.15;0.70;;;;;;;10.01;61.83;102614.59;5059689;28;20193;-67
2023/05/22 01:13:29;;;;;;;3.42;0.70;;;;;;;10.01;62.07;102621.56;5058858;28;20412;-67
2023/05/22 01:16:05;;;;;;;5.22;0.85;;;;;;;9.98;61.77;102619.78;5052213;28;20112;-68
2023/05/22 01:18:39;;;;;;;1.10;0.80;;;;;;;9.95;61.88;102624.97;5057736;28;20473;-67
2023/05/22 01:21:13;;;;;;;1.80;0.85;;;;;;;9.94;62.19;102627.56;5054107;28;20056;-67
2023/05/22 01:24:24;;;;;;;1.73;0.80;;;;;;;9.91;61.54;102626.66;5054269;28;20428;-67
2023/05/22 01:27:24;;;;;;;1.20;0.70;;;;;;;9.88;61.67;102625.75;5061525;28;20060;-67
2023/05/22 01:30:04;;;;;;;1.60;0.70;;;;;;;9.87;61.87;102627.44;5058694;28;20424;-68
2023/05/22 01:32:34;;;;;;;2.13;1.02;;;;;;;9.73;62.20;102602.88;5062540;28;20512;-68
2023/05/22 01:35:03;;;;;;;1.30;0.80;;;;;;;9.82;62.29;102620.44;5058574;28;20508;-67
2023/05/22 01:37:31;;;;;;;3.53;0.68;;;;;;;9.81;62.31;102619.53;5063407;28;20053;-68
2023/05/22 01:39:58;;;;;;;0.90;0.70;;;;;;;9.80;62.09;102620.41;5067115;28;20052;-67
2023/05/22 01:42:25;;;;;;;2.85;0.65;;;;;;;9.78;62.40;102618.63;5064009;28;20059;-67
2023/05/22 01:44:52;;;;;;;2.30;0.90;;;;;;;9.72;62.31;102613.31;5062004;28;20512;-67
2023/05/22 01:47:19;;;;;;;2.85;0.63;;;;;;;9.74;62.48;102620.31;5064255;28;20044;-67
2023/05/22 01:49:47;;;;;;;3.17;0.65;;;;;;;9.74;62.75;102616.84;5058859;28;20168;-67
2023/05/22 01:52:21;;;;;;;1.23;1.13;;;;;;;9.71;62.48;102619.41;5067489;28;20052;-67
2023/05/22 01:54:53;;;;;;;5.97;0.93;;;;;;;9.69;62.86;102611.53;5062343;28;20149;-67
2023/05/22 01:57:26;;;;;;;1.60;0.60;;;;;;;9.67;62.56;102618.47;5063916;28;20049;-67
2023/05/22 01:59:58;;;;;;;2.42;1.10;;;;;;;9.66;62.97;102614.13;5065988;28;20052;-68
2023/05/22 02:02:27;;;;;;;1.45;0.80;;;;;;;9.64;63.17;102616.69;5060074;28;20048;-67
2023/05/22 02:04:59;;;;;;;1.70;1.25;;;;;;;9.64;63.18;102614.06;5061758;28;20053;-68
2023/05/22 02:07:28;;;;;;;1.77;0.95;;;;;;;9.61;63.00;102611.41;5060269;28;20135;-67
2023/05/22 02:09:56;;;;;;;4.80;0.80;;;;;;;9.60;63.00;102612.28;5059354;28;20048;-68
2023/05/22 02:12:24;;;;;;;2.17;0.80;;;;;;;9.58;62.89;102619.22;5063765;28;20563;-68
2023/05/22 02:14:52;;;;;;;1.38;0.90;;;;;;;9.58;62.99;102613.13;5062043;28;20045;-68
2023/05/22 02:17:19;;;;;;;4.40;0.90;;;;;;;9.56;62.89;102610.50;5057740;28;20041;-67
2023/05/22 02:19:46;;;;;;;2.15;1.23;;;;;;;9.55;62.96;102613.06;5059571;28;20056;-67
2023/05/22 02:22:14;;;;;;;2.15;0.70;;;;;;;9.53;63.40;102615.66;5066531;28;20405;-68
2023/05/22 02:24:42;;;;;;;2.95;0.77;;;;;;;9.50;63.01;102609.50;5064722;28;20044;-68
2023/05/22 02:27:09;;;;;;;2.50;1.45;;;;;;;9.52;63.65;102613.91;5065520;28;20092;-67
2023/05/22 02:29:36;;;;;;;2.40;0.75;;;;;;;9.52;63.38;102615.63;5062146;28;20060;-68
2023/05/22 02:32:03;;;;;;;1.50;0.90;;;;;;;9.51;63.42;102612.16;5065631;28;20059;-67
2023/05/22 02:34:30;;;;;;;1.98;0.90;;;;;;;9.50;63.68;102610.38;5058440;28;20107;-68
2023/05/22 02:36:58;;;;;;;2.47;0.75;;;;;;;9.49;63.60;102613.84;5061911;28;20136;-67
2023/05/22 02:39:26;;;;;;;2.28;0.82;;;;;;;9.47;63.61;102607.72;5064200;28;20045;-67
2023/05/22 02:41:53;;;;;;;2.13;1.05;;;;;;;9.48;63.80;102612.13;5059537;28;20527;-67
2023/05/22 02:44:20;;;;;;;1.30;1.00;;;;;;;9.48;63.76;102614.72;5059699;28;20044;-68
2023/05/22 02:46:47;;;;;;;0.70;0.68;;;;;;;9.48;64.12;102616.44;5060825;28;20056;-68
2023/05/22 02:49:14;;;;;;;1.40;0.98;;;;;;;9.47;63.78;102610.34;5062964;28;20079;-68
2023/05/22 02:51:46;;;;;;;2.05;1.10;;;;;;;9.45;64.00;102601.63;5066030;28;20060;-66
2023/05/22 02:54:14;;;;;;;1.20;0.90;;;;;;;9.44;63.82;102602.47;5060385;28;20062;-66
2023/05/22 02:56:42;;;;;;;2.90;1.15;;;;;;;9.44;64.22;102605.06;5064920;28;20063;-68
2023/05/22 02:59:09;;;;;;;2.67;0.90;;;;;;;9.44;64.00;102605.06;5060229;28;20045;-67
2023/05/22 03:01:37;;;;;;;2.92;1.25;;;;;;;9.44;64.29;102602.47;5058307;28;20070;-69
2023/05/22 03:04:04;;;;;;;1.30;0.95;;;;;;;9.45;64.37;102604.25;5058742;28;20511;-68
2023/05/22 03:06:31;;;;;;;1.88;0.90;;;;;;;9.45;64.73;102601.63;5057412;28;20053;-67
2023/05/22 03:08:58;;;;;;;3.58;1.10;;;;;;;9.46;64.45;102603.38;5056390;28;20385;-67
2023/05/22 03:11:24;;;;;;;0.90;0.80;;;;;;;9.46;64.41;102603.38;5065550;28;20048;-68
2023/05/22 03:13:53;;;;;;;1.23;0.73;;;;;;;9.46;64.67;102608.59;5056020;28;20044;-67
2023/05/22 03:16:19;;;;;;;1.40;1.02;;;;;;;9.46;64.71;102609.47;5062334;28;20044;-67
2023/05/22 03:18:46;;;;;;;1.75;1.10;;;;;;;9.47;64.95;102607.72;5060341;28;20496;-67
2023/05/22 03:21:13;;;;;;;1.02;0.82;;;;;;;9.46;64.87;102604.25;5063080;28;20075;-68
2023/05/22 03:23:40;;;;;;;1.15;0.90;;;;;;;9.48;64.92;102604.28;5058698;28;20041;-68
2023/05/22 03:26:06;;;;;;;2.38;1.08;;;;;;;9.48;65.53;102600.78;5057597;28;20421;-67
2023/05/22 03:28:33;;;;;;;1.15;0.85;;;;;;;9.50;65.27;102599.94;5062980;28;20056;-67
2023/05/22 03:31:01;;;;;;;2.67;1.00;;;;;;;9.52;65.32;102607.81;5061920;28;20044;-68
2023/05/22 03:33:28;;;;;;;2.35;0.85;;;;;;;9.53;65.71;102605.22;5059594;28;20587;-67
2023/05/22 03:35:56;;;;;;;2.25;0.85;;;;;;;9.55;65.94;102598.28;5061229;28;20053;-68
2023/05/22 03:38:23;;;;;;;3.65;1.17;;;;;;;9.57;65.52;102599.19;5063836;28;20049;-67
2023/05/22 03:40:49;;;;;;;1.92;1.00;;;;;;;9.60;65.85;102607.06;5060613;28;20475;-68
2023/05/22 03:43:16;;;;;;;4.30;1.13;;;;;;;9.62;65.97;102605.38;5063831;28;20044;-68
2023/05/22 03:45:43;;;;;;;1.58;1.20;;;;;;;9.65;66.00;102600.19;5061220;28;20055;-67
2023/05/22 03:48:11;;;;;;;0.95;0.85;;;;;;;9.69;66.33;102601.97;5058682;28;20555;-68
2023/05/22 03:50:38;;;;;;;2.17;1.10;;;;;;;9.72;66.48;102593.31;5056061;28;20508;-68
2023/05/22 03:53:05;;;;;;;2.22;1.00;;;;;;;9.77;66.15;102591.66;5060374;28;20052;-67
2023/05/22 03:55:32;;;;;;;1.58;0.98;;;;;;;9.81;66.34;102587.34;5061659;28;20072;-68
2023/05/22 03:57:59;;;;;;;2.25;0.98;;;;;;;9.85;66.62;102581.34;5062080;28;20074;-68
2023/05/22 04:00:26;;;;;;;2.70;1.02;;;;;;;9.88;66.54;102589.22;5060652;28;20047;-67
2023/05/22 04:02:53;;;;;;;2.35;1.05;;;;;;;9.93;66.94;102590.13;5055790;28;20053;-68
2023/05/22 04:05:21;;;;;;;1.98;1.27;;;;;;;9.97;67.09;102575.41;5060340;28;20049;-68
2023/05/22 04:07:48;;;;;;;1.35;0.95;;;;;;;10.01;66.88;102578.03;5059439;28;20060;-68
2023/05/22 04:10:15;;;;;;;3.45;0.90;;;;;;;10.02;66.73;102573.72;5056487;28;20048;-68
2023/05/22 04:12:42;;;;;;;2.78;1.13;;;;;;;10.09;67.16;102576.41;5060297;28;20044;-68
2023/05/22 04:15:09;;;;;;;3.92;0.98;;;;;;;10.13;67.25;102573.00;5059445;28;20045;-68
2023/05/22 04:17:40;;;;;;;1.98;1.17;;;;;;;10.18;67.39;102565.19;5059158;28;20050;-67
2023/05/22 04:20:08;;;;;;;1.13;0.88;;;;;;;10.24;67.25;102580.06;5058562;28;20048;-68
2023/05/22 04:22:37;;;;;;;1.40;1.17;;;;;;;10.28;67.64;102567.09;5061533;28;20080;-68
2023/05/22 04:25:04;;;;;;;1.65;1.02;;;;;;;10.35;68.03;102579.34;5059905;28;20409;-68
2023/05/22 04:27:33;;;;;;;2.55;1.38;;;;;;;10.42;68.44;102577.72;5054512;28;20071;-68
2023/05/22 04:30:01;;;;;;;3.65;1.80;;;;;;;10.50;68.84;102572.53;5058427;28;20044;-68
2023/05/22 04:32:28;;;;;;;2.75;1.67;;;;;;;10.52;68.57;102563.88;5059222;28;20059;-68
2023/05/22 04:34:57;;;;;;;3.15;1.45;;;;;;;10.66;68.96;102573.59;5059881;28;20052;-70
2023/05/22 04:37:25;;;;;;;2.45;1.90;;;;;;;10.73;69.11;102564.94;5055440;28;20469;-68
2023/05/22 04:39:56;;;;;;;2.47;1.20;;;;;;;10.84;68.98;102573.75;5061291;28;20469;-71
2023/05/22 04:42:24;;;;;;;1.83;0.95;;;;;;;10.94;69.19;102570.38;5055721;28;20052;-70
2023/05/22 04:44:51;;;;;;;2.28;1.50;;;;;;;11.03;69.10;102569.56;5059754;28;20080;-69
2023/05/22 04:47:18;;;;;;;4.28;1.70;;;;;;;11.14;68.99;102560.06;5029530;28;20119;-70
2023/05/22 04:49:45;;;;;;;3.63;1.33;;;;;;;11.23;68.96;102565.38;5059400;28;20944;-70
2023/05/22 04:52:12;;;;;;;2.05;1.17;;;;;;;11.37;69.07;102572.47;5056800;28;20063;-69
2023/05/22 04:54:40;;;;;;;2.75;1.20;;;;;;;11.51;69.30;102564.69;5055210;28;20056;-69
2023/05/22 04:57:08;;;;;;;2.20;1.60;;;;;;;11.65;69.23;102560.44;5061200;28;20098;-69
2023/05/22 04:59:38;;;;;;;3.33;1.65;;;;;;;11.78;68.73;102563.97;5063928;28;20052;-70
2023/05/22 05:02:05;;;;;;;3.35;1.23;;;;;;;11.90;68.63;102564.97;5057159;28;20051;-69
2023/05/22 05:04:32;;;;;;;1.40;1.20;;;;;;;12.05;68.75;102558.03;5058462;28;20055;-70
2023/05/22 05:06:59;;;;;;;3.25;1.10;;;;;;;12.19;68.73;102561.56;5053183;28;20766;-69
2023/05/22 05:09:25;;;;;;;2.97;0.88;;;;;;;12.34;68.34;102555.50;5063726;28;20053;-69
2023/05/22 05:11:53;;;;;;;1.40;0.80;;;;;;;12.47;67.79;102556.41;5066062;28;20045;-69
2023/05/22 05:14:21;;;;;;;2.20;1.17;;;;;;;12.64;67.30;102549.47;5067324;28;20113;-70
2023/05/22 05:16:50;;;;;;;1.95;1.30;;;;;;;12.80;67.11;102552.94;5062251;28;20051;-74
2023/05/22 05:19:20;;;;;;;1.42;1.00;;;;;;;12.94;66.45;102555.59;5066344;28;20068;-70
2023/05/22 05:21:48;;;;;;;1.48;1.38;;;;;;;13.08;66.46;102551.22;5060662;28;20045;-70
2023/05/22 05:24:15;;;;;;;1.83;0.98;;;;;;;13.19;66.26;102549.47;5060857;28;20048;-69
2023/05/22 05:26:42;;;;;;;1.27;0.90;;;;;;;13.31;66.07;102545.09;5066081;28;20073;-70
2023/05/22 05:29:09;;;;;;;1.75;1.08;;;;;;;13.40;65.66;102539.81;5061946;28;20056;-69
2023/05/22 05:31:38;;;;;;;1.33;1.00;;;;;;;13.50;65.51;102542.44;5064427;28;20524;-69
2023/05/22 05:34:04;;;;;;;1.10;0.93;;;;;;;13.61;65.28;102539.78;5066929;28;20068;-69
2023/05/22 05:36:31;;;;;;;1.50;1.13;;;;;;;13.71;65.00;102538.88;5063980;28;20041;-69
2023/05/22 05:38:58;;;;;;;4.05;0.80;;;;;;;13.82;64.53;102532.72;5062310;28;20040;-69
2023/05/22 05:41:26;;;;;;;1.20;1.08;;;;;;;13.91;64.26;102527.41;5062237;28;20044;-69
2023/05/22 05:43:52;;;;;;;1.58;0.95;;;;;;;14.02;63.87;102524.75;5064351;28;20045;-69
2023/05/22 05:46:19;;;;;;;2.13;1.30;;;;;;;14.10;63.59;102523.81;5060870;28;20059;-69
2023/05/22 05:48:48;;;;;;;1.63;0.70;;;;;;;14.21;63.41;102525.53;5063117;28;20059;-70
2023/05/22 05:51:14;;;;;;;1.75;0.73;;;;;;;14.29;63.06;102521.09;5061484;28;20060;-69
2023/05/22 05:53:41;;;;;;;3.75;0.90;;;;;;;14.37;63.01;102522.81;5058985;28;20044;-70
2023/05/22 05:56:08;;;;;;;2.47;0.75;;;;;;;14.44;62.45;102518.38;5063722;28;20044;-69
2023/05/22 05:58:35;;;;;;;3.83;0.88;;;;;;;14.50;62.39;102518.31;5064576;28;20393;-69
2023/05/22 06:01:02;;;;;;;1.55;0.93;;;;;;;14.56;62.23;102512.19;5062211;28;20048;-69
2023/05/22 06:03:29;;;;;;;1.52;0.80;;;;;;;14.62;62.15;102509.50;5057962;28;20053;-70
2023/05/22 06:05:58;;;;;;;3.60;0.88;;;;;;;14.70;62.16;102504.19;5066433;28;20045;-69
2023/05/22 06:08:25;;;;;;;1.63;0.70;;;;;;;14.75;62.05;102512.94;5063674;28;20076;-69
2023/05/22 06:10:51;;;;;;;2.15;0.90;;;;;;;14.80;61.79;102512.00;5065788;28;20060;-69
2023/05/22 06:13:18;;;;;;;3.25;1.17;;;;;;;14.87;61.68;102509.31;5060939;28;20052;-70
2023/05/22 06:15:45;;;;;;;1.65;1.05;;;;;;;14.92;61.79;102508.38;5064136;28;20045;-69
2023/05/22 06:18:12;;;;;;;1.20;0.85;;;;;;;14.97;61.47;102501.34;5060324;28;20609;-70
2023/05/22 06:20:39;;;;;;;3.10;0.77;;;;;;;15.03;61.52;102503.91;5060401;28;20041;-69
2023/05/22 06:23:07;;;;;;;2.70;1.00;;;;;;;15.06;61.15;102495.97;5063593;28;20040;-69
2023/05/22 06:25:34;;;;;;;1.60;0.75;;;;;;;15.13;60.81;102499.41;5057716;28;20044;-70
2023/05/22 06:28:01;;;;;;;2.00;0.88;;;;;;;15.20;60.57;102500.25;5065776;28;20060;-70
2023/05/22 06:30:28;;;;;;;1.77;0.82;;;;;;;15.27;60.29;102496.66;5062717;28;20048;-69
2023/05/22 06:32:54;;;;;;;6.25;1.08;;;;;;;15.34;60.07;102500.97;5064353;28;20060;-69
2023/05/22 06:35:21;;;;;;;3.22;0.50;;;;;;;15.39;59.94;102496.50;5058645;28;20673;-69
2023/05/22 06:37:48;;;;;;;0.98;0.60;;;;;;;15.44;59.21;102497.31;5057115;28;20037;-69
2023/05/22 06:40:16;;;;;;;1.35;0.90;;;;;;;15.50;58.88;102496.38;5058003;28;20052;-69
2023/05/22 06:42:44;;;;;;;3.53;0.65;;;;;;;15.58;58.21;102496.31;5061462;28;20059;-70
2023/05/22 06:45:11;;;;;;;2.05;0.50;;;;;;;15.63;58.12;102490.09;5062482;28;20040;-69
2023/05/22 06:47:38;;;;;;;1.63;0.70;;;;;;;15.70;57.75;102490.91;5058720;28;20497;-70
2023/05/22 06:50:06;;;;;;;2.55;0.70;;;;;;;15.74;57.21;102488.22;5058337;28;20055;-69
2023/05/22 06:52:32;;;;;;;0.85;0.50;;;;;;;15.81;56.94;102499.56;5058816;28;20059;-71
2023/05/22 06:55:03;;;;;;;0.88;0.57;;;;;;;15.87;56.97;102496.84;5062104;28;20761;-71
2023/05/22 06:57:31;;;;;;;1.10;0.57;;;;;;;15.98;56.60;102501.09;5066187;28;20106;-71
2023/05/22 06:59:59;;;;;;;4.00;0.68;;;;;;;16.11;56.80;102493.00;5060280;28;20102;-69
2023/05/22 07:02:26;;;;;;;3.33;0.60;;;;;;;16.25;56.17;102495.47;5060340;28;20049;-69
2023/05/22 07:04:53;;;;;;;2.90;0.60;;;;;;;16.39;55.22;102503.13;5061211;28;20040;-68
2023/05/22 07:07:20;;;;;;;2.20;0.57;;;;;;;16.50;54.55;102498.56;5065444;28;20421;-71
2023/05/22 07:09:46;;;;;;;0.90;0.50;;;;;;;16.60;54.46;102501.94;5059856;28;20049;-69
2023/05/22 07:12:13;;;;;;;1.52;0.55;;;;;;;16.70;54.49;102490.31;5061299;28;20072;-69
2023/05/22 07:14:42;;;;;;;1.20;0.50;;;;;;;16.85;54.46;102492.75;5058534;28;20048;-70
2023/05/22 07:17:08;;;;;;;2.67;0.50;;;;;;;17.00;53.94;102493.38;5062820;28;20160;-69
2023/05/22 07:19:35;;;;;;;1.33;0.50;;;;;;;17.12;53.70;102489.66;5064273;28;20049;-69
2023/05/22 07:22:02;;;;;;;2.95;0.52;;;;;;;17.23;53.28;102488.53;5059213;28;20390;-70
2023/05/22 07:24:30;;;;;;;3.80;0.60;;;;;;;17.37;53.33;102485.66;5044384;28;20055;-69
2023/05/22 07:26:56;;;;;;;0.55;0.40;;;;;;;17.49;51.85;102489.81;5063060;28;20054;-69
2023/05/22 07:29:23;;;;;;;6.28;0.60;;;;;;;17.59;51.79;102478.16;5058099;28;20052;-69
2023/05/22 07:31:51;;;;;;;2.53;0.40;;;;;;;17.74;50.87;102480.47;5059728;28;20055;-70
2023/05/22 07:34:18;;;;;;;2.70;0.50;;;;;;;17.89;51.13;102478.44;5057884;28;20047;-69
2023/05/22 07:36:45;;;;;;;4.90;0.43;;;;;;;18.00;50.27;102476.44;5062322;28;20047;-69
2023/05/22 07:39:12;;;;;;;1.40;0.45;;;;;;;18.15;49.41;102478.72;5056674;28;20049;-70
2023/05/22 07:41:39;;;;;;;2.50;0.50;;;;;;;18.29;48.56;102472.25;5060183;28;20052;-69
2023/05/22 07:44:06;;;;;;;1.20;0.38;;;;;;;18.38;47.44;102472.00;5058282;28;20079;-69
2023/05/22 07:46:36;;;;;;;4.95;0.47;;;;;;;18.46;47.79;102467.41;5060805;28;20049;-70
2023/05/22 07:49:04;;;;;;;1.50;0.43;;;;;;;18.59;47.03;102468.84;5061105;28;20045;-69
2023/05/22 07:51:31;;;;;;;1.67;0.50;;;;;;;18.72;47.42;102465.88;5063096;28;20045;-71
2023/05/22 07:53:58;;;;;;;2.42;0.50;;;;;;;18.82;47.81;102463.00;5059774;28;20048;-70
2023/05/22 07:56:26;;;;;;;4.25;0.50;;;;;;;18.95;47.40;102471.47;5059880;28;20040;-70
2023/05/22 07:58:54;;;;;;;4.60;0.50;;;;;;;19.05;46.89;102469.47;5060928;28;20587;-70
2023/05/22 08:01:21;;;;;;;1.50;0.40;;;;;;;19.12;47.02;102465.72;5061789;28;20606;-70
2023/05/22 08:03:48;;;;;;;1.75;0.40;;;;;;;19.22;47.35;102469.00;5058337;28;20075;-70
2023/05/22 08:06:16;;;;;;;2.30;0.95;;;;;;;19.31;46.96;102460.81;5062712;28;20127;-70
2023/05/22 08:08:43;;;;;;;4.40;0.40;;;;;;;19.38;46.71;102462.38;5061505;28;20052;-69
2023/05/22 08:11:10;;;;;;;6.82;0.43;;;;;;;19.43;46.16;102464.88;5060109;28;20044;-70
2023/05/22 08:13:37;;;;;;;0.57;0.55;;;;;;;19.44;46.17;102456.91;5062021;28;20056;-70
2023/05/22 08:16:04;;;;;;;3.08;0.47;;;;;;;19.45;46.25;102455.97;5062706;28;20090;-69
2023/05/22 08:18:31;;;;;;;0.70;0.50;;;;;;;19.47;46.76;102461.25;5060123;28;20486;-69
2023/05/22 08:20:59;;;;;;;1.80;0.47;;;;;;;19.53;46.85;102461.06;5062425;28;20044;-70
2023/05/22 08:23:27;;;;;;;1.17;0.60;;;;;;;19.58;46.71;102459.16;5060727;28;20145;-69
2023/05/22 08:25:54;;;;;;;1.08;0.50;;;;;;;19.63;46.12;102453.69;5057628;28;20052;-70
2023/05/22 08:28:20;;;;;;;2.35;0.60;;;;;;;19.65;46.21;102460.72;5058854;28;20059;-69
2023/05/22 08:30:47;;;;;;;2.75;0.40;;;;;;;19.67;45.78;102455.38;5062565;28;20041;-69
2023/05/22 08:33:15;;;;;;;0.90;0.30;;;;;;;19.70;46.08;102458.81;5062037;28;20048;-70
2023/05/22 08:35:42;;;;;;;0.93;0.40;;;;;;;19.70;45.43;102461.47;5061086;28;20052;-69
2023/05/22 08:38:08;;;;;;;0.50;0.30;;;;;;;19.72;45.42;102451.69;5055362;28;20776;-70
2023/05/22 08:40:38;;;;;;;0.50;0.32;;;;;;;19.76;44.93;102448.00;5060184;28;20045;-70
2023/05/22 08:43:06;;;;;;;2.22;0.30;;;;;;;19.82;44.83;102449.63;5059082;28;20413;-70
2023/05/22 08:45:33;;;;;;;2.15;0.40;;;;;;;19.83;44.46;102446.03;5066768;28;20049;-69
2023/05/22 08:48:04;;;;;;;2.63;0.30;;;;;;;19.88;44.25;102445.91;5063068;28;20610;-70
2023/05/22 08:50:32;;;;;;;0.90;0.60;;;;;;;19.89;45.12;102444.97;5065448;28;20080;-69
2023/05/22 08:53:02;;;;;;;3.33;0.38;;;;;;;19.94;44.23;102440.41;5060719;28;20052;-70
2023/05/22 08:55:29;;;;;;;2.15;0.30;;;;;;;19.81;44.68;102413.41;5063246;28;20080;-69
2023/05/22 08:57:58;;;;;;;1.42;0.40;;;;;;;20.03;44.30;102439.25;5064578;28;20045;-70
2023/05/22 09:00:25;;;;;;;0.63;0.35;;;;;;;20.06;44.71;102444.44;5065262;28;20485;-70
2023/05/22 09:02:52;;;;;;;3.53;0.30;;;;;;;20.06;44.27;102439.16;5065181;28;20055;-69
2023/05/22 09:05:20;;;;;;;2.20;0.40;;;;;;;20.06;43.90;102436.50;5064533;28;20045;-69
2023/05/22 09:07:47;;;;;;;1.80;0.40;;;;;;;20.04;43.00;102430.38;5067477;28;20080;-70
2023/05/22 09:10:14;;;;;;;3.22;0.40;;;;;;;20.08;42.83;102432.88;5065965;28;20126;-70
2023/05/22 09:13:06;;;;;;;0.98;0.45;;;;;;;20.11;42.84;102423.97;5067951;28;20064;-69
2023/05/22 09:15:34;;;;;;;9.27;0.63;;;;;;;20.13;42.77;102419.47;5065219;28;20105;-70
2023/05/22 09:18:02;;;;;;;2.90;0.40;;;;;;;20.16;42.50;102420.25;5065944;28;20451;-70
2023/05/22 09:20:29;;;;;;;2.33;0.40;;;;;;;20.18;42.67;102422.84;5061216;28;20052;-70
2023/05/22 09:22:56;;;;;;;5.78;0.60;;;;;;;20.20;41.46;102411.25;5067102;28;20059;-70
2023/05/22 09:25:25;;;;;;;4.15;0.40;;;;;;;20.23;41.71;102410.28;5065831;28;20072;-70
2023/05/22 09:27:53;;;;;;;0.73;0.30;;;;;;;20.24;41.83;102406.72;5055686;28;20063;-70
2023/05/22 09:30:21;;;;;;;1.45;0.40;;;;;;;20.27;41.49;102401.31;5045749;28;20049;-70
2023/05/22 09:32:49;;;;;;;1.77;0.40;;;;;;;20.31;40.75;102402.94;5045625;28;20055;-69
2023/05/22 09:35:16;;;;;;;1.27;0.40;;;;;;;20.33;40.07;102395.81;5046961;28;20045;-70
2023/05/22 09:37:43;;;;;;;1.60;0.40;;;;;;;20.31;40.86;102397.63;5044659;28;20060;-70
2023/05/22 09:40:12;;;;;;;3.70;0.45;;;;;;;20.37;39.89;102389.44;5042109;28;20052;-70
2023/05/22 09:42:43;;;;;;;0.68;0.40;;;;;;;20.36;40.05;102395.69;5043844;28;20055;-69
2023/05/22 09:45:11;;;;;;;1.40;0.47;;;;;;;20.41;40.10;102392.91;5045796;28;20045;-70
2023/05/22 09:47:40;;;;;;;2.95;0.55;;;;;;;20.42;39.97;102390.16;5047159;28;20528;-70
2023/05/22 09:50:09;;;;;;;2.15;0.35;;;;;;;20.45;40.18;102387.41;5049747;28;20057;-70
2023/05/22 09:52:37;;;;;;;2.60;0.52;;;;;;;20.47;40.06;102382.06;5042694;28;20077;-70
2023/05/22 09:55:06;;;;;;;1.85;0.40;;;;;;;20.49;40.02;102369.63;5046078;28;20520;-69
2023/05/22 09:57:40;;;;;;;1.95;0.35;;;;;;;20.54;40.30;102375.63;5041602;28;20053;-70
2023/05/22 10:00:16;;;;;;;4.57;0.35;;;;;;;20.55;40.12;102366.78;5047277;28;20049;-70
2023/05/22 10:02:48;;;;;;;0.70;0.40;;;;;;;20.47;39.68;102355.53;5049052;28;20047;-70
2023/05/22 10:05:20;;;;;;;1.33;0.30;;;;;;;20.54;39.56;102365.03;5039999;28;20041;-68
2023/05/22 10:07:49;;;;;;;0.95;0.38;;;;;;;20.55;40.14;102364.13;5044953;28;20123;-69
2023/05/22 10:10:19;;;;;;;2.85;0.30;;;;;;;20.55;39.76;102364.13;5043150;28;20136;-68
2023/05/22 10:12:52;;;;;;;1.27;0.30;;;;;;;20.57;39.84;102356.94;5045281;28;20053;-68
2023/05/22 10:15:20;;;;;;;0.80;0.30;;;;;;;20.51;39.22;102348.31;5042404;28;20037;-68
2023/05/22 10:17:50;;;;;;;1.25;0.32;;;;;;;20.53;38.76;102349.16;5042639;28;20055;-69
2023/05/22 10:20:17;;;;;;;1.77;0.35;;;;;;;20.52;38.73;102352.69;5039812;28;20690;-69
2023/05/22 10:22:44;;;;;;;0.38;0.32;;;;;;;20.51;38.13;102348.31;5044582;28;20417;-69
2023/05/22 10:25:11;;;;;;;14.82;1.95;;;;;;;20.45;37.68;102331.66;5044014;28;20610;-69
2023/05/22 10:27:38;;;;;;;0.50;0.40;;;;;;;20.36;38.18;102320.53;5048084;28;20111;-68
2023/05/22 10:30:20;;;;;;;1.05;0.57;;;;;;;20.49;38.08;102331.56;5062265;28;20047;-68
2023/05/22 10:32:52;;;;;;;1.02;0.40;;;;;;;20.49;38.25;102326.25;5063465;28;20083;-69
2023/05/22 10:35:24;;;;;;;0.40;0.30;;;;;;;20.51;38.06;102324.41;5063731;28;20049;-69
2023/05/22 10:37:53;;;;;;;1.13;0.40;;;;;;;20.50;38.01;102323.56;5064231;28;20052;-69
2023/05/22 10:40:27;;;;;;;4.30;0.40;;;;;;;20.45;37.65;102331.66;5060727;28;20036;-69
2023/05/22 10:42:59;;;;;;;2.08;0.30;;;;;;;20.43;37.49;102317.59;5059290;28;20052;-68
2023/05/22 10:45:28;;;;;;;0.60;0.20;;;;;;;20.43;38.29;102322.03;5060984;28;22074;-69
2023/05/22 10:48:10;;;;;;;3.85;0.30;;;;;;;20.45;38.20;102320.19;5057714;28;20117;-69
2023/05/22 10:50:38;;;;;;;2.53;0.30;;;;;;;20.43;37.59;102312.31;5057379;28;20489;-69
2023/05/22 10:53:24;;;;;;;1.40;0.68;;;;;;;20.41;37.40;102319.44;5062274;28;20040;-68
2023/05/22 10:55:52;;;;;;;3.08;0.40;;;;;;;20.36;37.26;102305.47;5057351;28;20048;-68
2023/05/22 10:58:26;;;;;;;2.15;0.30;;;;;;;20.35;37.19;102297.53;5062984;28;20405;-69
2023/05/22 11:01:09;;;;;;;0.57;0.30;;;;;;;20.34;37.40;102304.63;5058581;28;20221;-69
2023/05/22 11:03:54;;;;;;;0.98;0.30;;;;;;;20.35;37.18;102300.19;5060399;28;20366;-69
2023/05/22 11:06:36;;;;;;;1.15;0.20;;;;;;;20.33;36.96;102292.31;5065479;28;20048;-69
2023/05/22 11:09:18;;;;;;;1.17;0.30;;;;;;;20.33;37.01;102292.31;5062183;28;20056;-69
2023/05/22 11:11:46;;;;;;;6.57;0.40;;;;;;;20.29;36.48;102277.41;5039098;28;20075;-69
2023/05/22 11:14:16;;;;;;;0.75;0.30;;;;;;;20.26;36.86;102266.88;5062751;28;20532;-69
2023/05/22 11:16:43;;;;;;;1.13;0.30;;;;;;;20.27;36.73;102273.94;5062701;28;20056;-69
2023/05/22 11:19:11;;;;;;;2.60;0.50;;;;;;;20.26;36.69;102272.19;5061675;28;20051;-69
2023/05/22 11:21:43;;;;;;;3.10;0.40;;;;;;;20.26;36.77;102268.69;5059369;28;20080;-68
2023/05/22 11:24:10;;;;;;;2.33;0.40;;;;;;;20.25;36.97;102265.16;5060113;28;20128;-69
2023/05/22 11:26:41;;;;;;;0.43;0.30;;;;;;;20.22;36.62;102260.81;5063181;28;20044;-69
2023/05/22 11:29:09;;;;;;;4.53;0.50;;;;;;;20.21;36.57;102258.25;5062678;28;20063;-69
2023/05/22 11:31:36;;;;;;;2.40;0.32;;;;;;;20.18;36.05;102253.91;5062037;28;20477;-68
2023/05/22 11:34:03;;;;;;;1.15;0.40;;;;;;;20.17;36.58;102260.13;5062808;28;20413;-69